createdAt,value
2024-01-24T00:00:21.406Z,99380.47
2024-01-24T00:01:23.884Z,99371.59
2024-01-24T00:02:26.143Z,99371.88
2024-01-24T00:03:28.859Z,99356.50
2024-01-24T00:04:31.178Z,99353.78
2024-01-24T00:05:33.659Z,99351.13
2024-01-24T00:06:37.480Z,99349.22
2024-01-24T00:07:40.036Z,99353.59
2024-01-24T00:08:42.492Z,99359.00
2024-01-24T00:09:45.004Z,99347.94
2024-01-24T00:10:47.349Z,99349.03
2024-01-24T00:11:49.647Z,99347.16
2024-01-24T00:12:52.187Z,99348.53
2024-01-24T00:13:54.628Z,99338.81
2024-01-24T00:14:56.918Z,99331.28
2024-01-24T00:15:59.511Z,99325.88
2024-01-24T00:17:01.944Z,99322.09
2024-01-24T00:18:04.564Z,99324.25
2024-01-24T00:19:07.295Z,99316.97
2024-01-24T00:20:10.781Z,99317.78
2024-01-24T00:21:13.106Z,99320.25
2024-01-24T00:22:15.674Z,99315.66
2024-01-24T00:23:18.148Z,99318.91
2024-01-24T00:24:20.456Z,99318.66
2024-01-24T00:25:22.772Z,99319.19
2024-01-24T00:26:25.129Z,99315.13
2024-01-24T00:27:27.779Z,99310.28
2024-01-24T00:28:30.857Z,99305.44
2024-01-24T00:29:33.166Z,99303.28
2024-01-24T00:30:35.545Z,99310.31
2024-01-24T00:31:37.791Z,99297.38
2024-01-24T00:32:40.225Z,99304.38
2024-01-24T00:33:42.732Z,99298.44
2024-01-24T00:34:45.167Z,99299.00
2024-01-24T00:35:47.780Z,99293.88
2024-01-24T00:36:53.056Z,99293.56
2024-01-24T00:37:55.365Z,99293.28
2024-01-24T00:38:57.960Z,99295.47
2024-01-24T00:40:00.384Z,99314.63
2024-01-24T00:41:02.639Z,99300.59
2024-01-24T00:42:05.317Z,99295.19
2024-01-24T00:43:07.733Z,99303.03
2024-01-24T00:44:10.237Z,99301.69
2024-01-24T00:45:13.422Z,99311.94
2024-01-24T00:46:16.083Z,99310.31
2024-01-24T00:47:20.465Z,99312.47
2024-01-24T00:48:22.810Z,99309.50
2024-01-24T00:49:26.647Z,99307.09
2024-01-24T00:50:29.974Z,99302.75
2024-01-24T00:51:34.398Z,99295.19
2024-01-24T00:52:37.290Z,99299.25
2024-01-24T00:53:41.171Z,99296.03
2024-01-24T00:54:43.781Z,99289.81
2024-01-24T00:55:47.532Z,99296.53
2024-01-24T00:56:50.163Z,99302.19
2024-01-24T00:57:52.375Z,99290.06
2024-01-24T00:58:54.763Z,99285.22
2024-01-24T00:59:57.000Z,99288.19
2024-01-24T01:00:59.499Z,99286.00
2024-01-24T01:02:02.292Z,99285.19
2024-01-24T01:03:05.292Z,99280.09
2024-01-24T01:04:07.697Z,99290.56
2024-01-24T01:05:10.233Z,99281.69
2024-01-24T01:06:12.982Z,99282.75
2024-01-24T01:07:15.290Z,99284.09
2024-01-24T01:08:18.177Z,99283.28
2024-01-24T01:09:20.424Z,99288.13
2024-01-24T01:10:23.048Z,99283.00
2024-01-24T01:11:25.429Z,99278.97
2024-01-24T01:12:27.743Z,99283.81
2024-01-24T01:13:30.115Z,99279.50
2024-01-24T01:14:32.374Z,99279.50
2024-01-24T01:15:34.660Z,99275.19
2024-01-24T01:16:37.219Z,99270.31
2024-01-24T01:17:39.709Z,99276.78
2024-01-24T01:18:42.328Z,99268.16
2024-01-24T01:19:44.649Z,99274.09
2024-01-24T01:20:47.318Z,99275.72
2024-01-24T01:21:50.188Z,99264.63
2024-01-24T01:22:52.598Z,99273.56
2024-01-24T01:23:54.879Z,99266.25
2024-01-24T01:25:00.168Z,99275.16
2024-01-24T01:26:02.888Z,99283.25
2024-01-24T01:27:05.767Z,99274.63
2024-01-24T01:28:08.433Z,99278.38
2024-01-24T01:29:10.898Z,99275.97
2024-01-24T01:30:13.501Z,99270.03
2024-01-24T01:31:15.905Z,99269.47
2024-01-24T01:32:18.403Z,99265.97
2024-01-24T01:33:20.942Z,99268.94
2024-01-24T01:34:23.477Z,99273.50
2024-01-24T01:35:26.357Z,99273.50
2024-01-24T01:36:28.648Z,99268.66
2024-01-24T01:37:31.005Z,99271.34
2024-01-24T01:38:33.412Z,99254.38
2024-01-24T01:39:35.706Z,99263.53
2024-01-24T01:40:38.064Z,99261.13
2024-01-24T01:41:40.703Z,99249.75
2024-01-24T01:42:46.621Z,99260.53
2024-01-24T01:43:49.647Z,99258.94
2024-01-24T01:44:52.065Z,99261.09
2024-01-24T01:46:01.098Z,99261.63
2024-01-24T01:47:03.882Z,99266.75
2024-01-24T01:48:06.630Z,99267.00
2024-01-24T01:49:10.354Z,99262.69
2024-01-24T01:50:15.737Z,99265.41
2024-01-24T01:51:19.840Z,99254.88
2024-01-24T01:52:26.010Z,99255.69
2024-01-24T01:53:28.541Z,99270.25
2024-01-24T01:54:31.135Z,99264.28
2024-01-24T01:55:35.383Z,99262.66
2024-01-24T01:56:38.227Z,99261.03
2024-01-24T01:57:44.965Z,99261.03
2024-01-24T01:58:48.456Z,99260.47
2024-01-24T01:59:50.962Z,99262.63
2024-01-24T02:00:53.466Z,99269.91
2024-01-24T02:01:57.923Z,99261.53
2024-01-24T02:03:00.631Z,99262.91
2024-01-24T02:04:03.961Z,99267.47
2024-01-24T02:05:06.617Z,99251.81
2024-01-24T02:06:09.593Z,99246.44
2024-01-24T02:07:12.250Z,99241.06
2024-01-24T02:08:14.688Z,99246.97
2024-01-24T02:09:17.167Z,99239.44
2024-01-24T02:10:19.520Z,99245.09
2024-01-24T02:11:22.227Z,99244.53
2024-01-24T02:12:24.608Z,99244.81
2024-01-24T02:13:33.401Z,99248.31
2024-01-24T02:14:35.804Z,99251.28
2024-01-24T02:15:38.883Z,99257.75
2024-01-24T02:16:41.154Z,99256.09
2024-01-24T02:17:43.613Z,99257.16
2024-01-24T02:18:46.113Z,99266.31
2024-01-24T02:19:48.435Z,99265.53
2024-01-24T02:20:51.410Z,99275.47
2024-01-24T02:21:54.201Z,99267.66
2024-01-24T02:22:56.504Z,99259.84
2024-01-24T02:24:01.152Z,99259.06
2024-01-24T02:25:03.754Z,99252.59
2024-01-24T02:26:06.115Z,99260.13
2024-01-24T02:27:08.697Z,99256.63
2024-01-24T02:28:11.091Z,99253.38
2024-01-24T02:29:13.361Z,99254.44
2024-01-24T02:30:16.531Z,99248.25
2024-01-24T02:31:18.880Z,99250.13
2024-01-24T02:32:21.219Z,99244.75
2024-01-24T02:33:23.889Z,99251.19
2024-01-24T02:34:26.316Z,99243.94
2024-01-24T02:35:29.436Z,99250.66
2024-01-24T02:36:31.820Z,99239.06
2024-01-24T02:37:34.344Z,99235.56
2024-01-24T02:38:36.532Z,99227.75
2024-01-24T02:39:38.944Z,99229.66
2024-01-24T02:40:41.289Z,99236.09
2024-01-24T02:41:44.142Z,99223.47
2024-01-24T02:42:46.490Z,99222.91
2024-01-24T02:43:49.061Z,99218.34
2024-01-24T02:44:51.623Z,99222.06
2024-01-24T02:45:54.430Z,99217.75
2024-01-24T02:46:56.811Z,99215.34
2024-01-24T02:47:59.234Z,99225.84
2024-01-24T02:49:01.641Z,99229.63
2024-01-24T02:50:05.455Z,99224.50
2024-01-24T02:51:07.692Z,99223.69
2024-01-24T02:52:10.198Z,99226.38
2024-01-24T02:53:12.457Z,99228.25
2024-01-24T02:54:14.872Z,99224.75
2024-01-24T02:55:17.297Z,99238.22
2024-01-24T02:56:20.461Z,99231.22
2024-01-24T02:57:22.852Z,99230.41
2024-01-24T02:58:25.085Z,99225.28
2024-01-24T02:59:27.417Z,99221.78
2024-01-24T03:00:30.374Z,99221.78
2024-01-24T03:01:32.691Z,99210.44
2024-01-24T03:02:36.223Z,99230.13
2024-01-24T03:03:41.627Z,99228.25
2024-01-24T03:04:44.105Z,99226.59
2024-01-24T03:05:46.418Z,99229.56
2024-01-24T03:06:48.773Z,99226.31
2024-01-24T03:07:51.182Z,99226.06
2024-01-24T03:08:58.353Z,99227.41
2024-01-24T03:10:00.912Z,99220.13
2024-01-24T03:11:03.227Z,99226.59
2024-01-24T03:12:05.878Z,99217.72
2024-01-24T03:13:09.178Z,99218.50
2024-01-24T03:14:11.769Z,99222.81
2024-01-24T03:15:14.263Z,99218.78
2024-01-24T03:16:17.603Z,99223.34
2024-01-24T03:17:20.614Z,99222.53
2024-01-24T03:18:25.122Z,99217.16
2024-01-24T03:19:27.621Z,99213.66
2024-01-24T03:20:30.028Z,99216.63
2024-01-24T03:21:32.376Z,99215.56
2024-01-24T03:22:35.137Z,99207.97
2024-01-24T03:23:39.685Z,99206.09
2024-01-24T03:24:42.063Z,99216.84
2024-01-24T03:25:45.321Z,99227.84
2024-01-24T03:26:49.053Z,99228.13
2024-01-24T03:27:51.345Z,99233.50
2024-01-24T03:28:53.604Z,99232.69
2024-01-24T03:29:56.425Z,99225.69
2024-01-24T03:30:58.784Z,99229.19
2024-01-24T03:32:01.157Z,99223.28
2024-01-24T03:33:05.898Z,99220.84
2024-01-24T03:34:08.430Z,99217.88
2024-01-24T03:35:11.621Z,99227.84
2024-01-24T03:36:14.339Z,99238.88
2024-01-24T03:37:16.971Z,99226.50
2024-01-24T03:38:21.047Z,99231.06
2024-01-24T03:39:24.173Z,99221.09
2024-01-24T03:40:26.483Z,99223.00
2024-01-24T03:41:28.995Z,99221.34
2024-01-24T03:42:32.236Z,99225.91
2024-01-24T03:43:34.502Z,99223.00
2024-01-24T03:44:37.117Z,99215.16
2024-01-24T03:45:40.041Z,99222.69
2024-01-24T03:46:42.480Z,99229.94
2024-01-24T03:47:46.021Z,99215.41
2024-01-24T03:48:48.506Z,99206.00
2024-01-24T03:49:51.075Z,99209.75
2024-01-24T03:50:53.431Z,99211.63
2024-01-24T03:51:56.109Z,99212.72
2024-01-24T03:52:58.672Z,99209.22
2024-01-24T03:54:00.939Z,99204.91
2024-01-24T03:55:03.449Z,99211.34
2024-01-24T03:56:07.318Z,99217.56
2024-01-24T03:57:09.754Z,99218.34
2024-01-24T03:58:12.040Z,99214.84
2024-01-24T03:59:14.504Z,99218.63
2024-01-24T04:00:17.729Z,99225.84
2024-01-24T04:01:20.149Z,99223.16
2024-01-24T04:02:22.463Z,99217.25
2024-01-24T04:03:25.079Z,99216.16
2024-01-24T04:04:27.467Z,99218.06
2024-01-24T04:05:30.100Z,99206.47
2024-01-24T04:06:32.578Z,99207.28
2024-01-24T04:07:34.964Z,99217.25
2024-01-24T04:08:37.313Z,99216.44
2024-01-24T04:09:39.652Z,99224.75
2024-01-24T04:10:42.048Z,99229.34
2024-01-24T04:11:44.361Z,99207.81
2024-01-24T04:12:46.830Z,99220.19
2024-01-24T04:13:56.609Z,99224.75
2024-01-24T04:14:59.382Z,99213.19
2024-01-24T04:16:02.178Z,99219.91
2024-01-24T04:17:04.588Z,99226.91
2024-01-24T04:18:07.181Z,99228.25
2024-01-24T04:19:09.910Z,99224.47
2024-01-24T04:20:12.445Z,99227.44
2024-01-24T04:21:14.865Z,99226.63
2024-01-24T04:22:17.234Z,99213.41
2024-01-24T04:23:19.715Z,99220.94
2024-01-24T04:24:22.008Z,99219.06
2024-01-24T04:25:24.337Z,99218.50
2024-01-24T04:26:26.667Z,99224.44
2024-01-24T04:27:29.085Z,99227.38
2024-01-24T04:28:32.219Z,99212.06
2024-01-24T04:29:34.607Z,99222.28
2024-01-24T04:30:37.029Z,99215.00
2024-01-24T04:31:39.800Z,99218.50
2024-01-24T04:32:42.325Z,99212.31
2024-01-24T04:33:45.105Z,99198.88
2024-01-24T04:34:47.655Z,99213.13
2024-01-24T04:35:50.095Z,99211.50
2024-01-24T04:36:56.066Z,99215.28
2024-01-24T04:37:58.373Z,99209.91
2024-01-24T04:39:00.593Z,99218.50
2024-01-24T04:40:03.684Z,99217.69
2024-01-24T04:41:06.293Z,99221.47
2024-01-24T04:42:12.526Z,99220.66
2024-01-24T04:43:20.760Z,99220.66
2024-01-24T04:44:23.074Z,99203.69
2024-01-24T04:45:25.353Z,99211.78
2024-01-24T04:46:27.980Z,99201.53
2024-01-24T04:47:30.273Z,99196.97
2024-01-24T04:48:32.846Z,99199.66
2024-01-24T04:49:44.136Z,99216.06
2024-01-24T04:50:48.414Z,99190.50
2024-01-24T04:51:50.850Z,99183.78
2024-01-24T04:52:53.612Z,99181.91
2024-01-24T04:53:55.879Z,99196.41
2024-01-24T04:54:58.572Z,99198.53
2024-01-24T04:56:01.247Z,99199.34
2024-01-24T04:57:05.132Z,99200.41
2024-01-24T04:58:07.369Z,99208.50
2024-01-24T04:59:09.571Z,99206.06
2024-01-24T05:00:13.585Z,99204.44
2024-01-24T05:01:16.365Z,99196.63
2024-01-24T05:02:18.849Z,99192.88
2024-01-24T05:03:21.136Z,99190.44
2024-01-24T05:04:24.382Z,99168.94
2024-01-24T05:05:26.922Z,99175.94
2024-01-24T05:06:29.570Z,99177.00
2024-01-24T05:07:31.863Z,99182.38
2024-01-24T05:08:34.352Z,99185.06
2024-01-24T05:09:37.027Z,99168.94
2024-01-24T05:10:39.447Z,99173.50
2024-01-24T05:11:42.604Z,99184.25
2024-01-24T05:12:45.548Z,99180.50
2024-01-24T05:13:48.996Z,99190.44
2024-01-24T05:14:51.442Z,99178.06
2024-01-24T05:15:53.973Z,99177.25
2024-01-24T05:16:56.552Z,99164.09
2024-01-24T05:17:59.027Z,99171.06
2024-01-24T05:19:01.504Z,99185.59
2024-01-24T05:20:04.119Z,99181.25
2024-01-24T05:21:06.956Z,99164.63
2024-01-24T05:22:10.536Z,99156.81
2024-01-24T05:23:13.183Z,99151.44
2024-01-24T05:24:15.548Z,99156.81
2024-01-24T05:25:18.115Z,99151.44
2024-01-24T05:26:20.733Z,99155.19
2024-01-24T05:27:23.703Z,99151.69
2024-01-24T05:28:26.088Z,99154.38
2024-01-24T05:29:28.412Z,99152.50
2024-01-24T05:30:35.742Z,99159.75
2024-01-24T05:31:39.804Z,99147.94
2024-01-24T05:32:42.165Z,99147.94
2024-01-24T05:33:44.585Z,99133.66
2024-01-24T05:34:47.136Z,99148.19
2024-01-24T05:35:50.149Z,99147.94
2024-01-24T05:36:55.363Z,99158.69
2024-01-24T05:38:00.371Z,99149.78
2024-01-24T05:39:03.388Z,99149.00
2024-01-24T05:40:06.445Z,99148.19
2024-01-24T05:41:10.296Z,99145.50
2024-01-24T05:42:13.628Z,99146.56
2024-01-24T05:43:16.203Z,99149.25
2024-01-24T05:44:18.850Z,99149.25
2024-01-24T05:45:21.333Z,99156.25
2024-01-24T05:46:23.709Z,99147.38
2024-01-24T05:47:26.353Z,99149.25
2024-01-24T05:48:28.901Z,99147.63
2024-01-24T05:49:35.075Z,99123.44
2024-01-24T05:50:37.703Z,99124.25
2024-01-24T05:51:40.212Z,99136.06
2024-01-24T05:52:44.238Z,99136.88
2024-01-24T05:53:46.758Z,99149.25
2024-01-24T05:54:49.147Z,99142.25
2024-01-24T05:55:51.723Z,99142.53
2024-01-24T05:56:54.196Z,99144.13
2024-01-24T05:57:56.529Z,99150.59
2024-01-24T05:58:58.932Z,99150.59
2024-01-24T06:00:02.089Z,99148.97
2024-01-24T06:01:06.802Z,99141.97
2024-01-24T06:02:09.366Z,99145.47
2024-01-24T06:03:12.323Z,99153.53
2024-01-24T06:04:15.165Z,99150.84
2024-01-24T06:05:17.898Z,99158.09
2024-01-24T06:06:20.838Z,99140.91
2024-01-24T06:07:23.579Z,99150.84
2024-01-24T06:08:25.952Z,99158.09
2024-01-24T06:09:31.486Z,99150.84
2024-01-24T06:10:34.706Z,99158.09
2024-01-24T06:11:38.656Z,99152.72
2024-01-24T06:12:41.215Z,99164.03
2024-01-24T06:13:43.744Z,99150.03
2024-01-24T06:14:46.668Z,99151.13
2024-01-24T06:15:49.054Z,99146.28
2024-01-24T06:16:51.367Z,99141.16
2024-01-24T06:17:53.959Z,99158.91
2024-01-24T06:18:56.333Z,99144.66
2024-01-24T06:19:58.824Z,99161.06
2024-01-24T06:21:02.456Z,99157.31
2024-01-24T06:22:05.427Z,99135.78
2024-01-24T06:23:08.100Z,99139.56
2024-01-24T06:24:10.525Z,99136.84
2024-01-24T06:25:14.033Z,99145.72
2024-01-24T06:26:16.603Z,99141.69
2024-01-24T06:27:19.421Z,99143.31
2024-01-24T06:28:21.706Z,99140.34
2024-01-24T06:30:15.085Z,99136.31
2024-01-24T06:30:47.446Z,99135.78
2024-01-24T06:31:51.332Z,99130.69
2024-01-24T06:32:53.783Z,99141.44
2024-01-24T06:33:56.321Z,99138.19
2024-01-24T06:34:59.225Z,99141.44
2024-01-24T06:36:01.809Z,99131.97
2024-01-24T06:37:04.199Z,99130.94
2024-01-24T06:38:06.909Z,99127.44
2024-01-24T06:39:11.026Z,99114.00
2024-01-24T06:40:15.428Z,99104.50
2024-01-24T06:41:17.777Z,99099.72
2024-01-24T06:42:21.347Z,99112.34
2024-01-24T06:43:23.805Z,99103.25
2024-01-24T06:44:27.485Z,99096.22
2024-01-24T06:45:30.282Z,99096.44
2024-01-24T06:46:34.378Z,99101.03
2024-01-24T06:47:36.964Z,99099.94
2024-01-24T06:48:39.548Z,99101.03
2024-01-24T06:49:42.516Z,99098.34
2024-01-24T06:50:45.674Z,99114.47
2024-01-24T06:51:47.993Z,99123.34
2024-01-24T06:52:50.287Z,99118.22
2024-01-24T06:53:52.820Z,99112.84
2024-01-24T06:54:55.394Z,99097.53
2024-01-24T06:55:57.877Z,99123.34
2024-01-24T06:57:00.503Z,99112.59
2024-01-24T06:58:04.893Z,99127.38
2024-01-24T06:59:07.859Z,99140.81
2024-01-24T07:00:11.505Z,99139.72
2024-01-24T07:01:14.288Z,99129.25
2024-01-24T07:02:16.814Z,99134.63
2024-01-24T07:03:23.224Z,99138.13
2024-01-24T07:04:26.925Z,99138.94
2024-01-24T07:05:30.106Z,99153.44
2024-01-24T07:06:32.696Z,99134.63
2024-01-24T07:07:35.350Z,99142.69
2024-01-24T07:08:41.898Z,99136.22
2024-01-24T07:09:44.561Z,99140.81
2024-01-24T07:10:46.858Z,99147.25
2024-01-24T07:11:49.252Z,99142.13
2024-01-24T07:12:52.980Z,99139.19
2024-01-24T07:13:55.393Z,99140.25
2024-01-24T07:14:57.953Z,99139.44
2024-01-24T07:16:05.400Z,99124.94
2024-01-24T07:17:07.726Z,99131.13
2024-01-24T07:18:10.972Z,99119.56
2024-01-24T07:19:13.609Z,99118.75
2024-01-24T07:20:17.497Z,99129.50
2024-01-24T07:21:19.964Z,99109.88
2024-01-24T07:22:22.351Z,99120.09
2024-01-24T07:23:24.777Z,99106.38
2024-01-24T07:24:27.150Z,99124.13
2024-01-24T07:25:29.677Z,99122.25
2024-01-24T07:26:32.038Z,99127.06
2024-01-24T07:27:36.051Z,99104.75
2024-01-24T07:28:39.029Z,99122.50
2024-01-24T07:29:41.657Z,99140.53
2024-01-24T07:30:44.472Z,99140.53
2024-01-24T07:31:46.885Z,99149.66
2024-01-24T07:32:50.181Z,99155.84
2024-01-24T07:33:53.021Z,99153.97
2024-01-24T07:34:55.438Z,99152.88
2024-01-24T07:35:58.000Z,99166.34
2024-01-24T07:37:00.749Z,99163.91
2024-01-24T07:38:04.528Z,99171.97
2024-01-24T07:39:07.856Z,99175.47
2024-01-24T07:40:12.413Z,99153.41
2024-01-24T07:41:15.330Z,99151.53
2024-01-24T07:42:17.966Z,99168.72
2024-01-24T07:43:23.820Z,99156.34
2024-01-24T07:44:27.234Z,99157.94
2024-01-24T07:45:32.871Z,99150.72
2024-01-24T07:46:37.692Z,99160.66
2024-01-24T07:47:40.318Z,99171.41
2024-01-24T07:48:44.125Z,99146.38
2024-01-24T07:49:46.933Z,99167.66
2024-01-24T07:50:50.402Z,99174.09
2024-01-24T07:51:55.275Z,99169.28
2024-01-24T07:52:58.581Z,99153.97
2024-01-24T07:54:01.170Z,99175.72
2024-01-24T07:55:03.587Z,99201.53
2024-01-24T07:56:11.753Z,99178.97
2024-01-24T07:57:22.741Z,99179.78
2024-01-24T07:58:26.212Z,99182.47
2024-01-24T08:00:46.769Z,99191.06
2024-01-24T08:01:50.650Z,99183.00
2024-01-24T08:02:57.055Z,99186.78
2024-01-24T08:05:16.602Z,99187.06
2024-01-24T08:06:19.357Z,99185.97
2024-01-24T08:07:22.036Z,99203.19
2024-01-24T08:08:24.697Z,99181.69
2024-01-24T08:09:27.352Z,99204.81
2024-01-24T08:10:30.022Z,99170.66
2024-01-24T08:11:32.776Z,99189.28
2024-01-24T08:12:35.155Z,99206.47
2024-01-24T08:13:37.981Z,99210.53
2024-01-24T08:14:40.835Z,99207.03
2024-01-24T08:15:43.642Z,99207.59
2024-01-24T08:17:11.802Z,99169.97
2024-01-24T08:18:15.369Z,99211.38
2024-01-24T08:19:17.760Z,99203.56
2024-01-24T08:20:21.368Z,99205.19
2024-01-24T08:21:24.007Z,99196.84
2024-01-24T08:22:30.317Z,99211.91
2024-01-24T08:23:42.177Z,99198.47
2024-01-24T08:24:49.073Z,99192.00
2024-01-24T08:25:51.827Z,99185.59
2024-01-24T08:26:54.445Z,99196.59
2024-01-24T08:27:57.362Z,99197.41
2024-01-24T08:29:00.400Z,99199.59
2024-01-24T08:30:03.437Z,99201.72
2024-01-24T08:31:07.398Z,99199.59
2024-01-24T08:32:13.376Z,99200.41
2024-01-24T08:33:16.065Z,99196.91
2024-01-24T08:34:19.306Z,99188.84
2024-01-24T08:35:21.940Z,99185.88
2024-01-24T08:36:24.384Z,99197.44
2024-01-24T08:37:26.762Z,99193.13
2024-01-24T08:38:29.785Z,99182.94
2024-01-24T08:39:33.067Z,99189.38
2024-01-24T08:40:35.733Z,99199.06
2024-01-24T08:41:39.523Z,99201.75
2024-01-24T08:42:43.538Z,99193.44
2024-01-24T08:43:46.168Z,99179.72
2024-01-24T08:44:48.482Z,99186.16
2024-01-24T08:45:52.241Z,99177.03
2024-01-24T08:46:54.900Z,99179.97
2024-01-24T08:47:57.237Z,99183.22
2024-01-24T08:49:00.114Z,99180.53
2024-01-24T08:50:05.268Z,99200.16
2024-01-24T08:51:07.742Z,99185.41
2024-01-24T08:52:10.144Z,99183.53
2024-01-24T08:53:21.070Z,99198.59
2024-01-24T08:54:23.571Z,99181.63
2024-01-24T08:55:26.252Z,99184.31
2024-01-24T08:56:28.617Z,99210.16
2024-01-24T08:57:31.341Z,99207.19
2024-01-24T08:58:33.743Z,99204.78
2024-01-24T08:59:36.511Z,99208.28
2024-01-24T09:00:38.882Z,99206.66
2024-01-24T09:01:42.286Z,99217.69
2024-01-24T09:02:44.976Z,99220.13
2024-01-24T09:03:48.708Z,99214.75
2024-01-24T09:04:53.976Z,99202.09
2024-01-24T09:05:56.364Z,99196.72
2024-01-24T09:06:58.753Z,99212.59
2024-01-24T09:08:02.806Z,99193.78
2024-01-24T09:09:05.888Z,99208.59
2024-01-24T09:10:09.910Z,99210.97
2024-01-24T09:11:12.428Z,99209.41
2024-01-24T09:12:15.393Z,99202.16
2024-01-24T09:13:21.791Z,99201.88
2024-01-24T09:14:25.518Z,99190.31
2024-01-24T09:15:28.138Z,99196.50
2024-01-24T09:16:30.462Z,99211.56
2024-01-24T09:17:34.940Z,99200.81
2024-01-24T09:18:37.367Z,99214.00
2024-01-24T09:19:41.997Z,99194.91
2024-01-24T09:20:45.054Z,99200.28
2024-01-24T09:21:47.387Z,99207.56
2024-01-24T09:22:51.471Z,99209.97
2024-01-24T09:23:53.799Z,99212.66
2024-01-24T09:24:56.121Z,99201.91
2024-01-24T09:25:58.425Z,99198.13
2024-01-24T09:27:00.714Z,99205.16
2024-01-24T09:28:03.726Z,99188.19
2024-01-24T09:29:06.060Z,99203.03
2024-01-24T09:30:08.847Z,99197.63
2024-01-24T09:31:11.224Z,99196.56
2024-01-24T09:32:13.550Z,99201.94
2024-01-24T09:33:16.841Z,99183.91
2024-01-24T09:34:19.414Z,99195.50
2024-01-24T09:35:22.540Z,99191.72
2024-01-24T09:36:25.017Z,99198.72
2024-01-24T09:37:28.383Z,99179.88
2024-01-24T09:38:30.671Z,99190.38
2024-01-24T09:39:32.983Z,99184.19
2024-01-24T09:40:35.363Z,99181.25
2024-01-24T09:41:43.593Z,99190.69
2024-01-24T09:42:46.374Z,99185.31
2024-01-24T09:43:49.863Z,99174.56
2024-01-24T09:44:53.009Z,99186.94
2024-01-24T09:45:59.028Z,99180.22
2024-01-24T09:47:02.715Z,99170.25
2024-01-24T09:48:07.668Z,99187.47
2024-01-24T09:49:13.667Z,99167.56
2024-01-24T09:50:16.252Z,99178.88
2024-01-24T09:51:19.186Z,99183.44
2024-01-24T09:52:26.015Z,99195.00
2024-01-24T09:53:31.963Z,99187.75
2024-01-24T09:54:36.384Z,99181.28
2024-01-24T09:55:39.539Z,99191.81
2024-01-24T09:56:44.038Z,99181.88
2024-01-24T09:57:50.052Z,99194.28
2024-01-24T09:58:52.997Z,99194.28
2024-01-24T09:59:55.587Z,99188.63
2024-01-24T10:01:01.615Z,99203.69
2024-01-24T10:02:07.220Z,99202.09
2024-01-24T10:03:09.702Z,99211.50
2024-01-24T10:04:15.584Z,99206.94
2024-01-24T10:05:20.191Z,99209.63
2024-01-24T10:06:22.725Z,99203.44
2024-01-24T10:07:25.178Z,99204.25
2024-01-24T10:08:28.337Z,99206.66
2024-01-24T10:09:30.672Z,99218.25
2024-01-24T10:10:33.066Z,99209.38
2024-01-24T10:11:35.355Z,99205.34
2024-01-24T10:12:38.180Z,99214.47
2024-01-24T10:13:40.476Z,99215.03
2024-01-24T10:14:42.797Z,99210.44
2024-01-24T10:15:45.305Z,99206.72
2024-01-24T10:16:47.671Z,99218.28
2024-01-24T10:17:50.148Z,99204.03
2024-01-24T10:18:52.957Z,99218.03
2024-01-24T10:19:55.444Z,99216.13
2024-01-24T10:20:57.813Z,99218.84
2024-01-24T10:22:00.190Z,99256.53
2024-01-24T10:23:02.502Z,99235.78
2024-01-24T10:24:05.380Z,99237.41
2024-01-24T10:25:11.031Z,99240.91
2024-01-24T10:26:13.586Z,99241.47
2024-01-24T10:27:16.268Z,99242.53
2024-01-24T10:28:18.755Z,99245.22
2024-01-24T10:29:21.353Z,99238.75
2024-01-24T10:30:24.333Z,99233.38
2024-01-24T10:31:26.785Z,99222.34
2024-01-24T10:32:29.280Z,99209.69
2024-01-24T10:33:32.764Z,99205.13
2024-01-24T10:34:35.186Z,99219.38
2024-01-24T10:35:37.594Z,99216.69
2024-01-24T10:36:43.688Z,99223.97
2024-01-24T10:37:47.168Z,99229.09
2024-01-24T10:38:50.587Z,99233.41
2024-01-24T10:39:55.625Z,99232.34
2024-01-24T10:41:01.768Z,99226.16
2024-01-24T10:42:11.995Z,99216.19
2024-01-24T10:43:20.865Z,99211.34
2024-01-24T10:44:26.584Z,99217.81
2024-01-24T10:45:32.311Z,99217.81
2024-01-24T10:46:37.618Z,99234.78
2024-01-24T10:47:41.629Z,99228.31
2024-01-24T10:48:44.271Z,99232.88
2024-01-24T10:49:47.810Z,99250.13
2024-01-24T10:50:51.457Z,99256.31
2024-01-24T10:51:56.977Z,99266.81
2024-01-24T10:53:00.373Z,99270.59
2024-01-24T10:54:05.393Z,99284.84
2024-01-24T10:55:12.555Z,99295.63
2024-01-24T10:56:17.648Z,99279.47
2024-01-24T10:57:21.267Z,99285.66
2024-01-24T10:58:24.705Z,99282.16
2024-01-24T10:59:32.703Z,99282.16
2024-01-24T11:00:35.621Z,99270.31
2024-01-24T11:01:38.046Z,99277.59
2024-01-24T11:02:42.352Z,99281.09
2024-01-24T11:03:46.990Z,99271.13
2024-01-24T11:04:52.259Z,99270.03
2024-01-24T11:06:00.078Z,99259.28
2024-01-24T11:07:15.490Z,99274.66
2024-01-24T11:08:43.581Z,99269.81
2024-01-24T11:10:12.308Z,99276.03
2024-01-24T11:11:21.587Z,99270.09
2024-01-24T11:12:24.329Z,99271.97
2024-01-24T11:13:26.672Z,99273.84
2024-01-24T11:14:35.984Z,99283.28
2024-01-24T11:15:38.505Z,99279.78
2024-01-24T11:16:42.254Z,99278.72
2024-01-24T11:17:48.438Z,99284.91
2024-01-24T11:18:52.912Z,99285.72
2024-01-24T11:19:56.871Z,99281.13
2024-01-24T11:21:01.121Z,99290.56
2024-01-24T11:23:46.987Z,99280.63
2024-01-24T11:24:49.528Z,99282.53
2024-01-24T11:25:52.842Z,99281.72
2024-01-24T11:26:55.927Z,99284.41
2024-01-24T11:27:59.614Z,99280.63
2024-01-24T11:29:14.461Z,99272.84
2024-01-24T11:30:18.106Z,99288.19
2024-01-24T11:31:43.161Z,99286.56
2024-01-24T11:32:48.602Z,99273.38
2024-01-24T11:34:12.392Z,99274.22
2024-01-24T11:35:41.872Z,99264.25
2024-01-24T11:36:52.281Z,99263.72
2024-01-24T11:38:24.932Z,99264.53
2024-01-24T11:39:36.786Z,99261.28
2024-01-24T11:40:39.295Z,99264.25
2024-01-24T11:41:42.331Z,99254.56
2024-01-24T11:42:55.282Z,99252.13
2024-01-24T11:43:57.890Z,99257.78
2024-01-24T11:45:16.393Z,99250.53
2024-01-24T11:46:22.335Z,99251.31
2024-01-24T11:47:24.895Z,99240.28
2024-01-24T11:48:30.541Z,99236.78
2024-01-24T11:49:33.082Z,99238.16
2024-01-24T11:50:35.463Z,99250.81
2024-01-24T11:51:37.874Z,99243.53
2024-01-24T11:52:40.750Z,99242.72
2024-01-24T11:53:43.155Z,99239.75
2024-01-24T11:54:55.040Z,99243.31
2024-01-24T11:55:58.466Z,99247.06
2024-01-24T11:57:00.761Z,99254.88
2024-01-24T11:58:04.374Z,99265.13
2024-01-24T11:59:06.714Z,99267.56
2024-01-24T12:00:10.424Z,99271.88
2024-01-24T12:01:13.740Z,99276.16
2024-01-24T12:02:16.698Z,99272.41
2024-01-24T12:03:19.260Z,99256.78
2024-01-24T12:04:24.200Z,99264.84
2024-01-24T12:05:26.595Z,99259.47
2024-01-24T12:06:32.718Z,99265.66
2024-01-24T12:07:35.252Z,99260.84
2024-01-24T12:08:38.869Z,99260.03
2024-01-24T12:09:41.903Z,99260.56
2024-01-24T12:10:44.907Z,99256.81
2024-01-24T12:11:47.592Z,99254.09
2024-01-24T12:12:50.894Z,99239.56
2024-01-24T12:13:53.259Z,99250.31
2024-01-24T12:14:58.955Z,99261.66
2024-01-24T12:16:02.720Z,99260.03
2024-01-24T12:17:05.188Z,99268.13
2024-01-24T12:18:10.812Z,99269.72
2024-01-24T12:19:15.148Z,99263.25
2024-01-24T12:20:18.353Z,99257.88
2024-01-24T12:21:25.596Z,99256.00
2024-01-24T12:22:33.715Z,99264.88
2024-01-24T12:23:36.437Z,99258.41
2024-01-24T12:24:40.583Z,99247.63
2024-01-24T12:25:44.396Z,99264.63
2024-01-24T12:26:47.103Z,99268.16
2024-01-24T12:27:49.598Z,99263.56
2024-01-24T12:28:52.469Z,99270.56
2024-01-24T12:29:55.222Z,99267.88
2024-01-24T12:30:58.817Z,99257.38